createdAt,value
2023-03-27T00:01:17.729Z,2.75
2023-03-27T00:06:21.916Z,2.00
2023-03-27T00:11:26.575Z,0.75
2023-03-27T00:16:30.483Z,1.50
2023-03-27T00:21:34.168Z,1.00
2023-03-27T00:26:40.463Z,0.75
2023-03-27T00:31:43.398Z,1.25
2023-03-27T00:36:50.982Z,1.25
2023-03-27T00:41:55.488Z,1.00
2023-03-27T00:46:58.653Z,1.25
2023-03-27T00:52:04.116Z,1.00
2023-03-27T00:57:13.695Z,0.00
2023-03-27T01:02:18.234Z,0.50
2023-03-27T01:07:22.618Z,1.50
2023-03-27T01:12:38.819Z,1.75
2023-03-27T01:17:58.664Z,1.00
2023-03-27T01:23:59.118Z,1.00
2023-03-27T01:29:11.487Z,0.00
2023-03-27T01:34:42.651Z,1.25
2023-03-27T01:39:57.701Z,2.00
2023-03-27T01:45:06.811Z,1.00
2023-03-27T01:50:18.280Z,0.75
2023-03-27T01:55:27.641Z,1.00
2023-03-27T02:00:51.128Z,1.00
2023-03-27T02:06:00.148Z,0.00
2023-03-27T02:11:05.570Z,2.00
2023-03-27T02:16:12.389Z,0.00
2023-03-27T02:21:15.623Z,1.00
2023-03-27T02:26:21.348Z,1.75
2023-03-27T02:31:38.401Z,1.00
2023-03-27T02:36:48.326Z,1.00
2023-03-27T02:41:58.119Z,0.00
2023-03-27T02:47:19.272Z,0.00
2023-03-27T02:52:34.728Z,1.00
2023-03-27T02:57:40.011Z,0.00
2023-03-27T03:03:08.119Z,1.00
2023-03-27T03:08:11.715Z,0.25
2023-03-27T03:13:16.050Z,0.00
2023-03-27T03:18:20.046Z,0.00
2023-03-27T03:23:24.108Z,0.00
2023-03-27T03:28:29.126Z,1.00
2023-03-27T03:33:32.934Z,0.00
2023-03-27T03:38:38.108Z,1.00
2023-03-27T03:43:47.035Z,0.25
2023-03-27T03:48:49.910Z,2.50
2023-03-27T03:53:52.708Z,0.00
2023-03-27T03:58:57.232Z,1.00
2023-03-27T04:03:59.991Z,1.00
2023-03-27T04:09:08.806Z,0.25
2023-03-27T04:14:29.871Z,0.50
2023-03-27T04:19:35.844Z,0.75
2023-03-27T04:24:44.677Z,0.50
2023-03-27T04:29:51.031Z,0.00
2023-03-27T04:35:25.833Z,0.00
2023-03-27T04:40:38.235Z,2.00
2023-03-27T04:45:44.678Z,0.50
2023-03-27T04:50:49.765Z,0.00
2023-03-27T04:56:06.135Z,0.00
2023-03-27T05:01:14.357Z,0.25
2023-03-27T05:06:23.412Z,0.00
2023-03-27T05:11:26.958Z,0.25
2023-03-27T05:16:31.389Z,0.00
2023-03-27T05:21:37.589Z,1.00
2023-03-27T05:26:44.177Z,0.50
2023-03-27T05:31:49.082Z,2.50
2023-03-27T05:37:16.427Z,1.00
2023-03-27T05:42:43.379Z,0.50
2023-03-27T05:47:49.643Z,2.00
2023-03-27T05:52:56.034Z,0.00
2023-03-27T05:58:05.998Z,0.00
2023-03-27T06:03:12.491Z,0.50
2023-03-27T06:08:47.617Z,0.00
2023-03-27T06:13:50.866Z,1.75
2023-03-27T06:18:59.494Z,0.50
2023-03-27T06:24:04.036Z,2.25
2023-03-27T06:29:08.057Z,0.00
2023-03-27T06:34:15.186Z,0.50
2023-03-27T06:39:24.673Z,0.00
2023-03-27T06:44:28.806Z,0.00
2023-03-27T06:49:47.636Z,1.25
2023-03-27T06:54:55.188Z,2.00
2023-03-27T07:00:00.879Z,1.00
2023-03-27T07:05:26.433Z,0.00
2023-03-27T07:10:29.561Z,0.00
2023-03-27T07:15:32.808Z,1.00
2023-03-27T07:20:37.064Z,0.75
2023-03-27T07:25:46.320Z,0.00
2023-03-27T07:30:58.676Z,0.00
2023-03-27T07:36:07.681Z,1.00
2023-03-27T07:41:20.997Z,2.00
2023-03-27T07:46:36.048Z,0.50
2023-03-27T07:51:41.172Z,0.75
2023-03-27T07:56:44.567Z,0.00
2023-03-27T08:02:07.500Z,0.00
2023-03-27T08:07:15.450Z,0.00
2023-03-27T08:12:19.637Z,1.25
2023-03-27T08:17:33.826Z,0.00
2023-03-27T08:22:39.456Z,0.00
2023-03-27T08:28:03.284Z,0.00
2023-03-27T08:33:09.766Z,0.00
2023-03-27T08:38:25.740Z,0.75
2023-03-27T08:44:04.071Z,0.00
2023-03-27T08:49:12.570Z,0.00
2023-03-27T08:54:21.443Z,0.00
2023-03-27T08:59:27.983Z,2.50
2023-03-27T09:04:41.092Z,0.00
2023-03-27T09:09:55.874Z,1.75
2023-03-27T09:15:05.742Z,1.00
2023-03-27T09:20:20.330Z,3.00
2023-03-27T09:25:31.467Z,3.00
2023-03-27T09:30:36.441Z,2.50
2023-03-27T09:35:59.403Z,2.25
2023-03-27T09:41:08.569Z,2.00
2023-03-27T09:46:19.337Z,3.25
2023-03-27T09:51:42.011Z,4.25
2023-03-27T09:57:12.437Z,3.00
2023-03-27T10:02:19.479Z,3.00
2023-03-27T10:07:25.798Z,73.80
2023-03-27T10:12:55.775Z,63.80
2023-03-27T10:18:21.164Z,101.00
2023-03-27T10:23:27.508Z,155.40
2023-03-27T10:28:38.838Z,182.00
2023-03-27T10:33:45.429Z,263.40
2023-03-27T10:39:15.538Z,307.67
2023-03-27T10:44:54.468Z,317.67
2023-03-27T10:50:09.279Z,324.00
2023-03-27T10:55:31.093Z,324.25
2023-03-27T11:00:39.796Z,365.75
2023-03-27T11:05:48.310Z,353.33
2023-03-27T11:11:09.640Z,373.33
2023-03-27T11:16:24.761Z,382.67
2023-03-27T11:21:51.161Z,359.33
2023-03-27T11:27:06.030Z,359.67
2023-03-27T11:32:21.389Z,349.00
2023-03-27T11:37:40.638Z,300.67
2023-03-27T11:42:46.520Z,283.80
2023-03-27T11:48:25.621Z,260.00
2023-03-27T11:53:48.214Z,282.33
2023-03-27T11:59:10.971Z,258.80
2023-03-27T12:04:41.556Z,58.00
2023-03-27T12:10:11.990Z,44.60
2023-03-27T12:15:55.996Z,206.60
2023-03-27T12:21:10.601Z,177.80
2023-03-27T12:26:35.015Z,185.40
2023-03-27T12:32:05.967Z,227.40
2023-03-27T12:37:14.233Z,355.25
2023-03-27T12:42:44.052Z,351.75
2023-03-27T12:48:17.806Z,483.25
2023-03-27T12:53:54.877Z,479.75
2023-03-27T12:58:59.816Z,520.50
2023-03-27T13:04:26.358Z,439.25
2023-03-27T13:09:54.478Z,386.50
2023-03-27T13:15:23.677Z,393.25
2023-03-27T13:20:41.111Z,366.75
2023-03-27T13:26:02.915Z,334.00
2023-03-27T13:31:14.672Z,316.00
2023-03-27T13:36:48.875Z,283.00
2023-03-27T13:42:08.089Z,299.00
2023-03-27T13:48:02.817Z,279.00
2023-03-27T13:53:33.850Z,264.00
2023-03-27T13:59:27.805Z,252.40
2023-03-27T14:05:05.682Z,247.00
2023-03-27T14:10:25.303Z,242.40
2023-03-27T14:16:04.888Z,222.60
2023-03-27T14:21:24.466Z,208.20
2023-03-27T14:26:37.878Z,197.80
2023-03-27T14:31:44.188Z,71.40
2023-03-27T14:36:56.303Z,105.60
2023-03-27T14:42:05.578Z,97.80
2023-03-27T14:47:17.715Z,113.00
2023-03-27T14:52:26.819Z,117.00
2023-03-27T14:57:50.419Z,112.20
2023-03-27T15:02:57.097Z,108.20
2023-03-27T15:08:01.242Z,99.00
2023-03-27T15:13:36.728Z,94.60
2023-03-27T15:18:56.202Z,96.20
2023-03-27T15:24:05.436Z,106.40
2023-03-27T15:29:17.938Z,64.20
2023-03-27T15:34:34.011Z,86.60
2023-03-27T15:39:39.345Z,96.40
2023-03-27T15:44:43.834Z,88.00
2023-03-27T15:49:48.070Z,87.00
2023-03-27T15:54:55.834Z,86.60
2023-03-27T16:00:08.466Z,83.00
2023-03-27T16:05:18.583Z,76.40
2023-03-27T16:10:32.660Z,77.60
2023-03-27T16:15:38.068Z,84.40
2023-03-27T16:20:42.457Z,46.60
2023-03-27T16:25:45.424Z,65.80
2023-03-27T16:30:48.894Z,67.80
2023-03-27T16:35:53.118Z,60.40
2023-03-27T16:40:55.871Z,59.40
2023-03-27T16:45:58.873Z,62.60
2023-03-27T16:51:03.107Z,65.80
2023-03-27T16:56:06.525Z,61.00
2023-03-27T17:01:10.349Z,62.80
2023-03-27T17:06:15.120Z,62.20
2023-03-27T17:11:17.891Z,64.20
2023-03-27T17:16:20.789Z,57.60
2023-03-27T17:21:26.159Z,61.00
2023-03-27T17:26:31.959Z,57.20
2023-03-27T17:31:35.359Z,58.40
2023-03-27T17:36:45.207Z,58.60
2023-03-27T17:41:50.856Z,58.00
2023-03-27T17:46:53.789Z,59.60
2023-03-27T17:51:58.147Z,59.60
2023-03-27T17:57:01.267Z,53.20
2023-03-27T18:02:04.161Z,55.20
2023-03-27T18:07:08.495Z,56.80
2023-03-27T18:12:11.723Z,53.00
2023-03-27T18:17:15.769Z,53.20
2023-03-27T18:22:19.897Z,51.60
2023-03-27T18:27:22.643Z,56.20
2023-03-27T18:32:26.170Z,52.40
2023-03-27T18:37:30.292Z,50.60
2023-03-27T18:42:33.032Z,46.80
2023-03-27T18:47:37.025Z,52.00
2023-03-27T18:52:41.630Z,56.20
2023-03-27T18:57:45.231Z,53.00
2023-03-27T19:02:48.842Z,47.40
2023-03-27T19:07:57.559Z,46.00
2023-03-27T19:13:01.841Z,49.00
2023-03-27T19:18:28.310Z,49.40
2023-03-27T19:23:55.672Z,45.20
2023-03-27T19:29:08.749Z,46.60
2023-03-27T19:34:11.690Z,45.60
2023-03-27T19:39:16.186Z,48.20
2023-03-27T19:44:21.068Z,47.20
2023-03-27T19:49:23.819Z,47.20
2023-03-27T19:54:54.969Z,45.80
2023-03-27T19:59:59.562Z,41.80
2023-03-27T20:05:02.375Z,46.00
2023-03-27T20:10:07.337Z,42.40
2023-03-27T20:15:12.435Z,41.60
2023-03-27T20:20:19.737Z,39.80
2023-03-27T20:25:24.079Z,42.20
2023-03-27T20:30:27.521Z,41.60
2023-03-27T20:35:31.836Z,41.60
2023-03-27T20:40:52.772Z,39.40
2023-03-27T20:45:59.950Z,34.60
2023-03-27T20:51:06.897Z,37.40
2023-03-27T20:56:14.135Z,39.40
2023-03-27T21:01:19.424Z,37.20
2023-03-27T21:06:22.332Z,36.00
2023-03-27T21:11:26.599Z,33.60
2023-03-27T21:16:29.788Z,36.20
2023-03-27T21:21:33.157Z,26.25
2023-03-27T21:26:37.369Z,31.40
2023-03-27T21:31:41.192Z,31.75
2023-03-27T21:36:44.126Z,28.00
2023-03-27T21:41:48.315Z,26.00
2023-03-27T21:46:51.116Z,30.25
2023-03-27T21:51:54.035Z,28.25
2023-03-27T21:56:58.145Z,28.25
2023-03-27T22:02:01.642Z,27.50
2023-03-27T22:07:04.517Z,25.75
2023-03-27T22:12:09.256Z,26.50
2023-03-27T22:17:12.032Z,28.00
2023-03-27T22:22:14.795Z,22.00
2023-03-27T22:27:18.894Z,29.00
2023-03-27T22:32:22.289Z,21.75
2023-03-27T22:37:25.134Z,23.50
2023-03-27T22:42:31.791Z,22.50
2023-03-27T22:47:35.475Z,22.25
2023-03-27T22:52:38.280Z,25.00
2023-03-27T22:57:42.478Z,23.50
2023-03-27T23:02:45.280Z,21.00
2023-03-27T23:07:48.050Z,21.75
2023-03-27T23:12:52.262Z,21.00
2023-03-27T23:17:55.402Z,18.50
2023-03-27T23:22:58.594Z,21.00
2023-03-27T23:28:02.664Z,23.25
2023-03-27T23:33:05.459Z,18.00
2023-03-27T23:38:08.163Z,19.00
2023-03-27T23:43:12.341Z,13.75
2023-03-27T23:48:15.298Z,15.75
2023-03-27T23:53:18.088Z,14.75
2023-03-27T23:58:22.204Z,13.25
